Terminal Aerodrome Forecast
Issued by NWS Raleigh/Durham, NC

Home | Current Version | Previous Version | Text Only | Print | Product List | Glossary On
Versions: 1 2 3 4 5 6 7 8 9 10 11 12 13 14 15 16 17 18 19 20 21 22 23 24 25 26 27 28 29 30 31 32 33 34 35 36 37 38 39 40 41 42 43 44 45 46 47 48 49 50
000
FTUS42 KRAH 221926 AAA
TAFRDU
TAF AMD
KRDU 221926Z 2219/2318 VRB05KT P6SM VCSH SCT025 BKN050
     FM230200 VRB04KT P6SM BKN060
     FM230800 22003KT 3SM BR SCT005
     FM231300 23005KT P6SM SCT015
     FM231700 23007KT P6SM VCSH BKN040=

USA.gov is the U.S. government's official web portal to all federal, state and local government web resources and services.